Latest Coastal Weather Observations for Low Head

IDV60701

Issued at 7:41 pm EST Thursday 19 April 2018 (issued every 10 minutes, with the page automatically refreshed every 10 minutes)

About coastal observations | Map of coastal stations | Coastal observations for VIC | Marine services | Other Formats
Station Details ID: 091293 Name: LOW HEAD Lat: -41.05 Lon: 146.79 Height: 3.0 m
Data from the previous 72 hours. | See also: Recent months at Low Head
Date/Time
EST
Temp
°C
Wind Pressure Rain since
9am
mm
Weather Cloud Vis
km
Sea
Height
m
Swell
Dir  Spd
kts
Gust
kts
hPa Trend Height
m
Period
s
Dir
19/07:30pm 12.1 E 6 7 1019.8 - 0.0 - - - - - - -
19/07:00pm 14.2 N 5 7 1019.8 - 0.0 - - - - - - -
19/06:30pm 14.4 N 6 8 1019.5 - 0.0 - - - - - - -
19/06:00pm 14.3 N 5 7 1019.3 - 0.0 - - - - - - -
19/05:30pm 14.4 N 5 7 1019.1 - 0.0 - - - - - - -
19/05:00pm 14.6 E 4 5 1018.9 - 0.0 - - - - - - -
19/04:30pm 14.6 NNW 3 4 1018.8 - 0.0 - - - - - - -
19/04:00pm 14.6 WSW 4 5 1018.8 - 0.0 - - - - - - -
19/03:30pm 15.0 WNW 5 7 1018.7 - 0.0 - - - - - - -
19/03:00pm 15.1 NNE 2 4 1018.6 - 0.0 - - - - - - -
19/02:30pm 14.8 NNE 3 4 1018.4 - 0.0 - - - - - - -
19/02:00pm 15.6 CALM 0 2 1018.4 - 0.0 - - - - - - -
19/01:30pm 15.3 NE 3 3 1018.5 - 0.0 - - - - - - -
19/01:00pm 14.4 N 4 5 1018.7 - 0.0 - - - - - - -
19/12:30pm 14.4 NW 3 4 1019.0 - 0.0 - - - - - - -
19/12:00pm 14.4 NW 3 4 1019.2 - 0.0 - - - - - - -
19/11:30am 13.8 WSW 2 4 1019.2 - 0.0 - - - - - - -
19/11:00am 13.3 CALM 0 0 1019.3 - 0.0 - - - - - - -
19/10:30am 12.7 SSW 3 4 1019.4 - 0.0 - - - - - - -
19/10:00am 12.5 SW 3 5 1019.5 - 0.0 - - - - - - -
19/09:30am 11.9 S 4 5 1019.5 - 0.0 - - - - - - -
19/09:00am 11.7 S 5 6 1019.5 - 0.0 - - - - - - -
19/08:30am 11.4 SSE 6 7 1019.5 - 0.0 - - - - - - -
19/08:00am 10.9 SSE 5 6 1019.3 - 0.0 - - - - - - -
19/07:30am 10.7 S 7 8 1018.9 - 0.0 - - - - - - -
19/07:00am 10.5 SSE 7 8 1018.7 - 0.0 - - - - - - -
19/06:30am 10.4 S 9 11 1018.5 - 0.0 - - - - - - -
19/06:00am 10.1 SSE 7 9 1018.3 - 0.0 - - - - - - -
19/05:30am 9.8 SSE 8 9 1018.5 - 0.0 - - - - - - -
19/05:00am 9.8 SSE 9 10 1018.5 - 0.0 - - - - - - -
19/04:30am 9.7 S 11 12 1018.2 - 0.0 - - - - - - -
19/04:00am 9.8 S 8 10 1018.3 - 0.0 - - - - - - -
19/03:30am 9.5 SSE 8 9 1018.5 - 0.0 - - - - - - -
19/03:00am 9.3 SSE 8 9 1018.7 - 0.0 - - - - - - -
19/02:30am 9.2 SSE 8 9 1019.3 - 0.0 - - - - - - -
19/02:00am 9.3 SSE 7 8 1019.5 - 0.0 - - - - - - -
19/01:30am 9.3 SSE 8 9 1019.8 - 0.0 - - - - - - -
19/01:00am 9.3 SSE 6 8 1020.0 - 0.0 - - - - - - -
19/12:30am 9.7 SSE 7 8 1020.3 - 0.0 - - - - - - -
19/12:00am 9.1 SSE 7 8 1020.2 - 0.0 - - - - - - -
 
Date/Time
EST
Temp
°C
Wind Pressure Rain since
9am
mm
Weather Cloud Vis
km
Sea
Height
m
Swell
Dir  Spd
kts
Gust
kts
hPa Trend Height
m
Period
s
Dir
18/11:30pm 9.6 SSE 7 9 1020.5 - 0.0 - - - - - - -
18/11:00pm 9.4 SSE 6 7 1020.7 - 0.0 - - - - - - -
18/10:30pm 9.2 SSE 7 8 1020.8 - 0.0 - - - - - - -
18/10:00pm 9.3 SSE 7 7 1020.9 - 0.0 - - - - - - -
18/09:30pm 10.0 SE 5 6 1020.8 - 0.0 - - - - - - -
18/09:00pm 10.7 SE 4 5 1020.9 - 0.0 - - - - - - -
18/08:30pm 11.0 E 5 7 1020.8 - 0.0 - - - - - - -
18/08:00pm 12.1 NW 4 5 1021.0 - 0.0 - - - - - - -
18/07:30pm 12.1 NW 3 5 1021.0 - 0.0 - - - - - - -
18/07:00pm 12.2 NW 5 6 1021.0 - 0.0 - - - - - - -
18/06:30pm 12.4 NW 6 8 1020.9 - 0.0 - - - - - - -
18/06:00pm 12.6 NNW 7 9 1020.7 - 0.0 - - - - - - -
18/05:30pm 12.6 N 6 7 1020.7 - 0.0 - - - - - - -
18/05:00pm 12.8 NW 7 9 1020.8 - 0.0 - - - - - - -
18/04:30pm 12.9 NNW 4 6 1020.8 - 0.0 - - - - - - -
18/04:00pm 13.4 NNW 6 7 1020.8 - 0.0 - - - - - - -
18/03:30pm 13.6 NW 6 8 1021.0 - 0.0 - - - - - - -
18/03:00pm 13.7 NW 8 9 1021.1 - 0.0 - - - - - - -
18/02:30pm 14.4 WNW 10 11 1021.3 - 0.0 - - - - - - -
18/02:00pm 14.5 NW 8 11 1021.3 - 0.0 - - - - - - -
18/01:30pm 13.7 NW 8 10 1021.5 - 0.0 - - - - - - -
18/01:00pm 13.9 NNW 5 7 1022.0 - 0.0 - - - - - - -
18/12:30pm 13.4 NNW 6 7 1022.4 - 0.0 - - - - - - -
18/12:00pm 12.7 S 2 4 1022.9 - 0.0 - - - - - - -
18/11:30am 12.5 S 7 9 1023.2 - 0.0 - - - - - - -
18/11:00am 11.8 S 9 11 1023.2 - 0.0 - - - - - - -
18/10:30am 11.3 S 10 11 1023.5 - 0.0 - - - - - - -
18/10:00am 10.4 S 10 12 1023.8 - 0.0 - - - - - - -
18/09:30am 9.4 S 11 14 1023.9 - 0.0 - - - - - - -
18/09:00am 8.5 SSE 12 14 1023.9 - 0.0 - - - - - - -
18/08:30am 8.2 SSE 11 15 1023.9 - 0.0 - - - - - - -
18/08:00am 6.9 SSE 11 15 1023.8 - 0.0 - - - - - - -
18/07:30am 6.3 SSE 12 15 1023.6 - 0.0 - - - - - - -
18/07:00am 6.2 SSE 11 13 1023.4 - 0.0 - - - - - - -
18/06:30am 6.2 SSE 11 14 1023.4 - 0.0 - - - - - - -
18/06:00am 6.6 SSE 12 14 1023.4 - 0.0 - - - - - - -
18/05:30am 6.7 SSE 11 13 1023.2 - 0.0 - - - - - - -
18/05:00am 7.1 SSE 11 15 1023.1 - 0.0 - - - - - - -
18/04:30am 6.7 SSE 11 15 1023.0 - 0.0 - - - - - - -
18/04:00am 7.2 SSE 10 13 1023.1 - 0.0 - - - - - - -
18/03:30am 7.0 SSE 10 12 1023.2 - 0.0 - - - - - - -
18/03:00am 7.8 SSE 9 12 1023.2 - 0.0 - - - - - - -
18/02:30am 7.4 SSE 6 7 1023.5 - 0.0 - - - - - - -
18/02:00am 7.4 SSE 7 8 1023.5 - 0.0 - - - - - - -
18/01:30am 8.5 SSE 7 8 1023.5 - 0.0 - - - - - - -
18/01:00am 8.8 S 5 6 1023.7 - 0.0 - - - - - - -
18/12:30am 10.1 S 6 7 1023.7 - 0.0 - - - - - - -
18/12:00am 10.5 S 7 8 1023.5 - 0.0 - - - - - - -
 
Date/Time
EST
Temp
°C
Wind Pressure Rain since
9am
mm
Weather Cloud Vis
km
Sea
Height
m
Swell
Dir  Spd
kts
Gust
kts
hPa Trend Height
m
Period
s
Dir
17/11:30pm 10.7 SW 8 9 1023.6 - 0.0 - - - - - - -
17/11:00pm 10.7 SSW 7 9 1023.8 - 0.0 - - - - - - -
17/10:30pm 11.0 SSW 8 9 1023.9 - 0.0 - - - - - - -
17/10:00pm 10.9 S 6 7 1023.9 - 0.0 - - - - - - -
17/09:30pm 11.7 SW 6 7 1023.8 - 0.0 - - - - - - -
17/09:00pm 11.9 SW 8 9 1023.7 - 0.0 - - - - - - -
17/08:30pm 12.6 WSW 13 16 1023.6 - 0.0 - - - - - - -
17/08:00pm 12.9 WSW 15 18 1023.5 - 0.0 - - - - - - -
17/07:30pm 13.3 WSW 16 19 1023.2 - 0.0 - - - - - - -
17/07:00pm 13.8 WSW 18 20 1022.8 - 0.0 - - - - - - -
17/06:30pm 14.1 WSW 16 19 1022.3 - 0.0 - - - - - - -
17/06:00pm 14.5 WSW 15 18 1021.7 - 0.0 - - - - - - -
17/05:30pm 14.8 WSW 17 20 1021.5 - 0.0 - - - - - - -
17/05:00pm 15.2 W 17 19 1021.2 - 0.0 - - - - - - -
17/04:30pm 15.5 W 15 17 1021.3 - 0.0 - - - - - - -
17/04:00pm 15.5 W 18 22 1021.0 - 0.0 - - - - - - -
17/03:30pm 15.6 W 19 22 1020.9 - 0.0 - - - - - - -
17/03:00pm 15.6 W 16 18 1020.9 - 0.0 - - - - - - -
17/02:30pm 15.6 W 16 19 1020.8 - 0.0 - - - - - - -
17/02:00pm 15.3 W 16 21 1020.9 - 0.0 - - - - - - -
17/01:30pm 15.2 W 17 21 1020.8 - 0.0 - - - - - - -
17/01:00pm 15.0 W 16 19 1020.9 - 0.0 - - - - - - -
17/12:30pm 14.8 W 17 19 1021.0 - 0.0 - - - - - - -
17/12:00pm 14.4 W 17 22 1021.3 - 0.0 - - - - - - -
17/11:30am 14.3 W 14 17 1021.5 - 0.0 - - - - - - -
17/11:00am 13.8 W 13 16 1021.4 - 0.0 - - - - - - -
17/10:30am 13.5 W 14 17 1021.4 - 0.0 - - - - - - -
17/10:00am 13.3 WSW 12 15 1021.4 - 0.0 - - - - - - -
17/09:30am 12.9 WSW 13 17 1021.3 - 0.0 - - - - - - -
17/09:00am 12.7 SW 12 16 1020.9 - 0.0 - - - - - - -
17/08:30am 12.0 WSW 13 15 1020.3 - 0.0 - - - - - - -
17/08:00am 11.7 WSW 14 16 1019.7 - 0.0 - - - - - - -
17/07:30am 12.0 WSW 14 16 1019.0 - 0.0 - - - - - - -
17/07:00am 12.4 WSW 19 23 1018.3 - 0.0 - - - - - - -
17/06:30am 12.4 WSW 16 20 1018.0 - 0.0 - - - - - - -
17/06:00am 12.5 WSW 21 25 1016.9 - 0.0 - - - - - - -
17/05:30am 12.3 WSW 15 19 1016.9 - 0.0 - - - - - - -
17/05:00am 12.5 WSW 20 24 1016.0 - 0.0 - - - - - - -
17/04:30am 12.3 WSW 18 21 1015.8 - 0.0 - - - - - - -
17/04:00am 12.1 WSW 19 24 1015.1 - 0.0 - - - - - - -
17/03:30am 12.1 W 23 30 1014.7 - 0.0 - - - - - - -
17/03:00am 12.4 W 22 27 1014.6 - 0.0 - - - - - - -
17/02:30am 12.0 W 19 25 1014.7 - 0.0 - - - - - - -
17/02:00am 11.9 W 22 28 1014.6 - 0.0 - - - - - - -
17/01:30am 11.8 W 23 28 1014.4 - 0.0 - - - - - - -
17/01:00am 11.9 W 21 26 1014.3 - 0.0 - - - - - - -
17/12:30am 12.1 W 27 31 1014.0 - 0.0 - - - - - - -
17/12:00am 11.9 W 24 29 1013.6 - 0.0 - - - - - - -
 
Date/Time
EST
Temp
°C
Wind Pressure Rain since
9am
mm
Weather Cloud Vis
km
Sea
Height
m
Swell
Dir  Spd
kts
Gust
kts
hPa Trend Height
m
Period
s
Dir
16/11:30pm 11.7 W 24 29 1013.7 - 0.0 - - - - - - -
16/11:00pm 12.1 W 25 31 1013.6 - 0.0 - - - - - - -
16/10:30pm 12.0 W 24 29 1013.4 - 0.0 - - - - - - -
16/10:00pm 11.9 W 25 28 1013.0 - 0.0 - - - - - - -
16/09:30pm 12.0 W 24 30 1012.8 - 0.0 - - - - - - -
16/09:00pm 12.1 W 25 30 1012.6 - 0.0 - - - - - - -
16/08:30pm 12.3 W 23 28 1012.5 - 0.0 - - - - - - -
16/08:00pm 12.2 W 23 29 1011.8 - 0.0 - - - - - - -

Other Formats:

Comma delimited format used in spreadsheet applications
http://www.bom.gov.au/fwo/IDV60701/IDV60701.95964.axf

JavaScript Object Notation format (JSON) in row-major order
http://www.bom.gov.au/fwo/IDV60701/IDV60701.95964.json